sensor_id;sensor_type;location;lat;lon;timestamp;P1;durP1;ratioP1;P2;durP2;ratioP2
66559;SDS011;53413;49.878;8.142;2022-12-29T00:01:59;6.40;;;2.00;;
66559;SDS011;53413;49.878;8.142;2022-12-29T00:04:24;7.33;;;1.73;;
66559;SDS011;53413;49.878;8.142;2022-12-29T00:06:50;5.93;;;1.80;;
66559;SDS011;53413;49.878;8.142;2022-12-29T00:09:17;6.35;;;1.98;;
66559;SDS011;53413;49.878;8.142;2022-12-29T00:11:42;7.47;;;1.90;;
66559;SDS011;53413;49.878;8.142;2022-12-29T00:14:09;5.28;;;1.90;;
66559;SDS011;53413;49.878;8.142;2022-12-29T00:16:53;4.77;;;1.80;;
66559;SDS011;53413;49.878;8.142;2022-12-29T00:19:19;4.85;;;1.92;;
66559;SDS011;53413;49.878;8.142;2022-12-29T00:22:03;5.73;;;1.67;;
66559;SDS011;53413;49.878;8.142;2022-12-29T00:24:48;5.63;;;1.70;;
66559;SDS011;53413;49.878;8.142;2022-12-29T00:27:32;6.22;;;1.92;;
66559;SDS011;53413;49.878;8.142;2022-12-29T00:30:20;4.65;;;1.90;;
66559;SDS011;53413;49.878;8.142;2022-12-29T00:33:13;4.93;;;1.60;;
66559;SDS011;53413;49.878;8.142;2022-12-29T00:38:35;4.28;;;1.67;;
66559;SDS011;53413;49.878;8.142;2022-12-29T00:41:21;5.18;;;1.70;;
66559;SDS011;53413;49.878;8.142;2022-12-29T00:44:05;4.43;;;1.67;;
66559;SDS011;53413;49.878;8.142;2022-12-29T00:46:32;5.45;;;2.00;;
66559;SDS011;53413;49.878;8.142;2022-12-29T00:48:59;5.33;;;1.60;;
66559;SDS011;53413;49.878;8.142;2022-12-29T00:51:44;6.72;;;1.90;;
66559;SDS011;53413;49.878;8.142;2022-12-29T00:54:10;5.55;;;1.83;;
66559;SDS011;53413;49.878;8.142;2022-12-29T00:56:35;4.68;;;1.70;;
66559;SDS011;53413;49.878;8.142;2022-12-29T00:59:01;5.23;;;2.00;;
66559;SDS011;53413;49.878;8.142;2022-12-29T01:01:27;4.32;;;1.80;;
66559;SDS011;53413;49.878;8.142;2022-12-29T01:03:53;5.60;;;1.90;;
66559;SDS011;53413;49.878;8.142;2022-12-29T01:06:18;5.13;;;2.20;;
66559;SDS011;53413;49.878;8.142;2022-12-29T01:08:44;5.13;;;1.65;;
66559;SDS011;53413;49.878;8.142;2022-12-29T01:11:10;5.88;;;1.85;;
66559;SDS011;53413;49.878;8.142;2022-12-29T01:13:38;5.47;;;1.90;;
66559;SDS011;53413;49.878;8.142;2022-12-29T01:16:06;4.60;;;1.52;;
66559;SDS011;53413;49.878;8.142;2022-12-29T01:18:32;3.97;;;1.70;;
66559;SDS011;53413;49.878;8.142;2022-12-29T01:20:58;5.43;;;2.00;;
66559;SDS011;53413;49.878;8.142;2022-12-29T01:23:28;5.30;;;1.70;;
66559;SDS011;53413;49.878;8.142;2022-12-29T01:25:54;5.18;;;1.60;;
66559;SDS011;53413;49.878;8.142;2022-12-29T01:28:19;4.10;;;1.50;;
66559;SDS011;53413;49.878;8.142;2022-12-29T01:30:45;4.78;;;1.70;;
66559;SDS011;53413;49.878;8.142;2022-12-29T01:33:11;4.80;;;1.77;;
66559;SDS011;53413;49.878;8.142;2022-12-29T01:35:36;4.13;;;1.60;;
66559;SDS011;53413;49.878;8.142;2022-12-29T01:38:01;5.40;;;1.70;;
66559;SDS011;53413;49.878;8.142;2022-12-29T01:40:27;4.70;;;1.60;;
66559;SDS011;53413;49.878;8.142;2022-12-29T01:42:53;4.85;;;1.55;;
66559;SDS011;53413;49.878;8.142;2022-12-29T01:45:18;3.73;;;1.50;;
66559;SDS011;53413;49.878;8.142;2022-12-29T01:47:44;4.13;;;1.35;;
66559;SDS011;53413;49.878;8.142;2022-12-29T01:50:24;7.70;;;1.73;;
66559;SDS011;53413;49.878;8.142;2022-12-29T01:53:00;3.90;;;1.50;;
66559;SDS011;53413;49.878;8.142;2022-12-29T01:55:28;4.70;;;1.70;;
66559;SDS011;53413;49.878;8.142;2022-12-29T01:57:58;5.25;;;1.60;;
66559;SDS011;53413;49.878;8.142;2022-12-29T02:00:28;4.15;;;1.60;;
66559;SDS011;53413;49.878;8.142;2022-12-29T02:02:53;4.50;;;1.57;;
66559;SDS011;53413;49.878;8.142;2022-12-29T02:06:21;3.73;;;1.30;;
66559;SDS011;53413;49.878;8.142;2022-12-29T02:08:25;5.85;;;1.50;;
66559;SDS011;53413;49.878;8.142;2022-12-29T02:10:53;4.18;;;1.40;;
66559;SDS011;53413;49.878;8.142;2022-12-29T02:13:19;4.00;;;1.30;;
66559;SDS011;53413;49.878;8.142;2022-12-29T02:15:51;4.50;;;1.33;;
66559;SDS011;53413;49.878;8.142;2022-12-29T02:18:28;3.85;;;1.33;;
66559;SDS011;53413;49.878;8.142;2022-12-29T02:27:07;5.35;;;1.30;;
66559;SDS011;53413;49.878;8.142;2022-12-29T02:32:54;3.65;;;1.30;;
66559;SDS011;53413;49.878;8.142;2022-12-29T02:41:08;3.53;;;1.20;;
66559;SDS011;53413;49.878;8.142;2022-12-29T02:49:36;3.17;;;1.10;;
66559;SDS011;53413;49.878;8.142;2022-12-29T02:52:10;4.00;;;1.30;;
66559;SDS011;53413;49.878;8.142;2022-12-29T02:54:42;5.45;;;1.33;;
66559;SDS011;53413;49.878;8.142;2022-12-29T02:59:45;4.45;;;1.38;;
66559;SDS011;53413;49.878;8.142;2022-12-29T03:08:08;4.43;;;1.50;;
66559;SDS011;53413;49.878;8.142;2022-12-29T03:16:23;14.10;;;1.55;;
66559;SDS011;53413;49.878;8.142;2022-12-29T03:19:00;4.18;;;1.42;;
66559;SDS011;53413;49.878;8.142;2022-12-29T03:21:39;4.93;;;1.50;;
66559;SDS011;53413;49.878;8.142;2022-12-29T03:24:29;4.53;;;1.40;;
66559;SDS011;53413;49.878;8.142;2022-12-29T03:26:58;5.35;;;1.40;;
66559;SDS011;53413;49.878;8.142;2022-12-29T03:29:26;3.70;;;1.42;;
66559;SDS011;53413;49.878;8.142;2022-12-29T03:31:54;3.83;;;1.20;;
66559;SDS011;53413;49.878;8.142;2022-12-29T03:34:21;4.65;;;1.35;;
66559;SDS011;53413;49.878;8.142;2022-12-29T03:36:53;4.83;;;1.60;;
66559;SDS011;53413;49.878;8.142;2022-12-29T03:39:23;4.53;;;1.38;;
66559;SDS011;53413;49.878;8.142;2022-12-29T03:41:50;4.95;;;1.48;;
66559;SDS011;53413;49.878;8.142;2022-12-29T03:44:20;3.88;;;1.50;;
66559;SDS011;53413;49.878;8.142;2022-12-29T03:46:46;4.43;;;1.52;;
66559;SDS011;53413;49.878;8.142;2022-12-29T03:49:11;4.03;;;1.50;;
66559;SDS011;53413;49.878;8.142;2022-12-29T03:51:36;3.83;;;1.30;;
66559;SDS011;53413;49.878;8.142;2022-12-29T03:54:02;4.40;;;1.43;;
66559;SDS011;53413;49.878;8.142;2022-12-29T03:56:27;5.27;;;1.37;;
66559;SDS011;53413;49.878;8.142;2022-12-29T03:58:53;4.95;;;1.55;;
66559;SDS011;53413;49.878;8.142;2022-12-29T04:01:19;4.10;;;1.60;;
66559;SDS011;53413;49.878;8.142;2022-12-29T04:03:44;4.37;;;1.37;;
66559;SDS011;53413;49.878;8.142;2022-12-29T04:06:09;4.05;;;1.20;;
66559;SDS011;53413;49.878;8.142;2022-12-29T04:08:35;5.00;;;1.30;;
66559;SDS011;53413;49.878;8.142;2022-12-29T04:11:00;4.87;;;1.40;;
66559;SDS011;53413;49.878;8.142;2022-12-29T04:13:25;3.87;;;1.30;;
66559;SDS011;53413;49.878;8.142;2022-12-29T04:15:50;4.83;;;1.30;;
66559;SDS011;53413;49.878;8.142;2022-12-29T04:18:16;3.83;;;1.40;;
66559;SDS011;53413;49.878;8.142;2022-12-29T04:20:41;5.20;;;1.37;;
66559;SDS011;53413;49.878;8.142;2022-12-29T04:23:25;3.97;;;1.38;;
66559;SDS011;53413;49.878;8.142;2022-12-29T04:25:51;3.78;;;1.40;;
66559;SDS011;53413;49.878;8.142;2022-12-29T04:28:16;3.53;;;1.40;;
66559;SDS011;53413;49.878;8.142;2022-12-29T04:30:42;4.03;;;1.30;;
66559;SDS011;53413;49.878;8.142;2022-12-29T04:33:09;3.45;;;1.30;;
66559;SDS011;53413;49.878;8.142;2022-12-29T04:35:34;4.32;;;1.40;;
66559;SDS011;53413;49.878;8.142;2022-12-29T04:38:00;4.60;;;1.50;;
66559;SDS011;53413;49.878;8.142;2022-12-29T04:40:25;4.43;;;1.50;;
66559;SDS011;53413;49.878;8.142;2022-12-29T04:42:50;3.70;;;1.50;;
66559;SDS011;53413;49.878;8.142;2022-12-29T04:45:16;5.25;;;1.50;;
66559;SDS011;53413;49.878;8.142;2022-12-29T04:47:41;3.50;;;1.20;;
66559;SDS011;53413;49.878;8.142;2022-12-29T04:50:07;3.90;;;1.30;;
66559;SDS011;53413;49.878;8.142;2022-12-29T04:52:33;4.13;;;1.40;;
66559;SDS011;53413;49.878;8.142;2022-12-29T04:54:58;3.80;;;1.40;;
66559;SDS011;53413;49.878;8.142;2022-12-29T04:57:24;4.37;;;1.47;;
66559;SDS011;53413;49.878;8.142;2022-12-29T04:59:49;4.50;;;1.40;;
66559;SDS011;53413;49.878;8.142;2022-12-29T05:02:15;4.07;;;1.30;;
66559;SDS011;53413;49.878;8.142;2022-12-29T05:04:41;4.13;;;1.50;;
66559;SDS011;53413;49.878;8.142;2022-12-29T05:07:07;5.88;;;1.40;;
66559;SDS011;53413;49.878;8.142;2022-12-29T05:09:32;4.15;;;1.50;;
66559;SDS011;53413;49.878;8.142;2022-12-29T05:11:58;3.83;;;1.30;;
66559;SDS011;53413;49.878;8.142;2022-12-29T05:14:23;3.40;;;1.30;;
66559;SDS011;53413;49.878;8.142;2022-12-29T05:16:48;4.77;;;1.30;;
66559;SDS011;53413;49.878;8.142;2022-12-29T05:19:14;4.10;;;1.20;;
66559;SDS011;53413;49.878;8.142;2022-12-29T05:21:39;5.35;;;1.48;;
66559;SDS011;53413;49.878;8.142;2022-12-29T05:24:04;4.50;;;1.47;;
66559;SDS011;53413;49.878;8.142;2022-12-29T05:26:30;5.10;;;1.30;;
66559;SDS011;53413;49.878;8.142;2022-12-29T05:28:55;4.27;;;1.20;;
66559;SDS011;53413;49.878;8.142;2022-12-29T05:31:20;4.90;;;1.20;;
66559;SDS011;53413;49.878;8.142;2022-12-29T05:33:46;4.00;;;1.33;;
66559;SDS011;53413;49.878;8.142;2022-12-29T05:36:11;4.70;;;1.30;;
66559;SDS011;53413;49.878;8.142;2022-12-29T05:38:37;3.85;;;1.13;;
66559;SDS011;53413;49.878;8.142;2022-12-29T05:41:02;3.90;;;1.50;;
66559;SDS011;53413;49.878;8.142;2022-12-29T05:43:27;4.43;;;1.33;;
66559;SDS011;53413;49.878;8.142;2022-12-29T05:45:53;3.67;;;1.10;;
66559;SDS011;53413;49.878;8.142;2022-12-29T05:48:18;4.40;;;1.30;;
66559;SDS011;53413;49.878;8.142;2022-12-29T05:50:50;3.57;;;1.20;;
66559;SDS011;53413;49.878;8.142;2022-12-29T05:53:16;4.07;;;1.15;;
66559;SDS011;53413;49.878;8.142;2022-12-29T05:55:42;3.60;;;1.13;;
66559;SDS011;53413;49.878;8.142;2022-12-29T05:58:08;3.58;;;1.20;;
66559;SDS011;53413;49.878;8.142;2022-12-29T06:00:34;5.33;;;1.30;;
66559;SDS011;53413;49.878;8.142;2022-12-29T06:02:59;4.25;;;1.30;;
66559;SDS011;53413;49.878;8.142;2022-12-29T06:05:25;3.30;;;1.00;;
66559;SDS011;53413;49.878;8.142;2022-12-29T06:07:50;3.40;;;1.03;;
66559;SDS011;53413;49.878;8.142;2022-12-29T06:10:16;3.50;;;1.10;;
66559;SDS011;53413;49.878;8.142;2022-12-29T06:12:42;4.13;;;1.40;;
66559;SDS011;53413;49.878;8.142;2022-12-29T06:15:07;5.18;;;1.50;;
66559;SDS011;53413;49.878;8.142;2022-12-29T06:17:33;4.77;;;1.40;;
66559;SDS011;53413;49.878;8.142;2022-12-29T06:19:58;6.23;;;1.43;;
66559;SDS011;53413;49.878;8.142;2022-12-29T06:22:24;6.07;;;1.42;;
66559;SDS011;53413;49.878;8.142;2022-12-29T06:24:49;3.80;;;1.30;;
66559;SDS011;53413;49.878;8.142;2022-12-29T06:27:14;4.07;;;1.20;;
66559;SDS011;53413;49.878;8.142;2022-12-29T06:29:40;4.60;;;1.53;;
66559;SDS011;53413;49.878;8.142;2022-12-29T06:32:06;6.67;;;1.60;;
66559;SDS011;53413;49.878;8.142;2022-12-29T06:34:31;5.40;;;1.40;;
66559;SDS011;53413;49.878;8.142;2022-12-29T06:36:56;5.33;;;1.60;;
66559;SDS011;53413;49.878;8.142;2022-12-29T06:39:22;4.03;;;1.40;;
66559;SDS011;53413;49.878;8.142;2022-12-29T06:41:47;4.57;;;1.60;;
66559;SDS011;53413;49.878;8.142;2022-12-29T06:44:12;4.70;;;1.50;;
66559;SDS011;53413;49.878;8.142;2022-12-29T06:46:38;6.30;;;1.70;;
66559;SDS011;53413;49.878;8.142;2022-12-29T06:49:03;5.93;;;1.50;;
66559;SDS011;53413;49.878;8.142;2022-12-29T06:51:28;6.27;;;1.70;;
66559;SDS011;53413;49.878;8.142;2022-12-29T06:53:54;4.77;;;1.70;;
66559;SDS011;53413;49.878;8.142;2022-12-29T06:56:19;5.53;;;1.80;;
66559;SDS011;53413;49.878;8.142;2022-12-29T06:58:45;4.43;;;1.57;;
66559;SDS011;53413;49.878;8.142;2022-12-29T07:01:10;6.33;;;1.57;;
66559;SDS011;53413;49.878;8.142;2022-12-29T07:03:35;5.43;;;1.90;;
66559;SDS011;53413;49.878;8.142;2022-12-29T07:06:01;4.90;;;1.70;;
66559;SDS011;53413;49.878;8.142;2022-12-29T07:08:26;6.45;;;1.77;;
66559;SDS011;53413;49.878;8.142;2022-12-29T07:10:51;6.43;;;2.17;;
66559;SDS011;53413;49.878;8.142;2022-12-29T07:13:17;4.53;;;1.77;;
66559;SDS011;53413;49.878;8.142;2022-12-29T07:15:42;5.63;;;1.70;;
66559;SDS011;53413;49.878;8.142;2022-12-29T07:18:08;6.30;;;2.00;;
66559;SDS011;53413;49.878;8.142;2022-12-29T07:20:33;4.45;;;1.83;;
66559;SDS011;53413;49.878;8.142;2022-12-29T07:22:58;5.68;;;1.77;;
66559;SDS011;53413;49.878;8.142;2022-12-29T07:25:24;6.23;;;1.90;;
66559;SDS011;53413;49.878;8.142;2022-12-29T07:27:49;5.33;;;1.70;;
66559;SDS011;53413;49.878;8.142;2022-12-29T07:30:15;5.47;;;1.90;;
66559;SDS011;53413;49.878;8.142;2022-12-29T07:32:41;5.65;;;1.90;;
66559;SDS011;53413;49.878;8.142;2022-12-29T07:35:06;6.10;;;2.03;;
66559;SDS011;53413;49.878;8.142;2022-12-29T07:37:33;7.45;;;2.00;;
66559;SDS011;53413;49.878;8.142;2022-12-29T07:39:59;5.38;;;1.80;;
66559;SDS011;53413;49.878;8.142;2022-12-29T07:42:25;5.28;;;2.00;;
66559;SDS011;53413;49.878;8.142;2022-12-29T07:44:51;4.77;;;2.00;;
66559;SDS011;53413;49.878;8.142;2022-12-29T07:47:16;6.57;;;2.20;;
66559;SDS011;53413;49.878;8.142;2022-12-29T07:49:41;5.40;;;2.00;;
66559;SDS011;53413;49.878;8.142;2022-12-29T07:52:07;5.17;;;1.90;;
66559;SDS011;53413;49.878;8.142;2022-12-29T07:54:35;5.50;;;1.90;;
66559;SDS011;53413;49.878;8.142;2022-12-29T07:57:00;7.43;;;2.15;;
66559;SDS011;53413;49.878;8.142;2022-12-29T07:59:26;5.80;;;2.10;;
66559;SDS011;53413;49.878;8.142;2022-12-29T08:01:51;6.15;;;2.08;;
66559;SDS011;53413;49.878;8.142;2022-12-29T08:04:16;5.72;;;2.10;;
66559;SDS011;53413;49.878;8.142;2022-12-29T08:06:42;5.00;;;2.03;;
66559;SDS011;53413;49.878;8.142;2022-12-29T08:09:08;5.77;;;2.00;;
66559;SDS011;53413;49.878;8.142;2022-12-29T08:11:33;6.63;;;2.40;;
66559;SDS011;53413;49.878;8.142;2022-12-29T08:13:58;5.27;;;1.93;;
66559;SDS011;53413;49.878;8.142;2022-12-29T08:16:24;7.32;;;2.10;;
66559;SDS011;53413;49.878;8.142;2022-12-29T08:18:49;5.70;;;2.23;;
66559;SDS011;53413;49.878;8.142;2022-12-29T08:21:14;5.47;;;1.97;;
66559;SDS011;53413;49.878;8.142;2022-12-29T08:23:40;5.50;;;2.10;;
66559;SDS011;53413;49.878;8.142;2022-12-29T08:26:05;5.47;;;2.17;;
66559;SDS011;53413;49.878;8.142;2022-12-29T08:28:31;8.57;;;2.40;;
66559;SDS011;53413;49.878;8.142;2022-12-29T08:30:58;7.00;;;2.10;;
66559;SDS011;53413;49.878;8.142;2022-12-29T08:33:24;5.53;;;2.45;;
66559;SDS011;53413;49.878;8.142;2022-12-29T08:35:50;6.70;;;2.28;;
66559;SDS011;53413;49.878;8.142;2022-12-29T08:38:15;5.13;;;2.30;;
66559;SDS011;53413;49.878;8.142;2022-12-29T08:40:41;7.47;;;2.60;;
66559;SDS011;53413;49.878;8.142;2022-12-29T08:43:06;5.63;;;2.40;;
66559;SDS011;53413;49.878;8.142;2022-12-29T08:45:31;5.87;;;2.43;;
66559;SDS011;53413;49.878;8.142;2022-12-29T08:47:57;5.43;;;2.40;;
66559;SDS011;53413;49.878;8.142;2022-12-29T08:50:22;6.07;;;2.40;;
66559;SDS011;53413;49.878;8.142;2022-12-29T08:52:48;5.67;;;2.23;;
66559;SDS011;53413;49.878;8.142;2022-12-29T08:55:13;7.97;;;2.40;;
66559;SDS011;53413;49.878;8.142;2022-12-29T08:57:38;5.63;;;2.10;;
66559;SDS011;53413;49.878;8.142;2022-12-29T09:00:04;5.57;;;1.97;;
66559;SDS011;53413;49.878;8.142;2022-12-29T09:02:30;5.65;;;2.17;;
66559;SDS011;53413;49.878;8.142;2022-12-29T09:04:55;5.93;;;2.07;;
66559;SDS011;53413;49.878;8.142;2022-12-29T09:07:22;6.47;;;2.40;;
66559;SDS011;53413;49.878;8.142;2022-12-29T09:09:48;4.95;;;2.10;;
66559;SDS011;53413;49.878;8.142;2022-12-29T09:12:14;6.60;;;2.10;;
66559;SDS011;53413;49.878;8.142;2022-12-29T09:14:40;7.40;;;2.33;;
66559;SDS011;53413;49.878;8.142;2022-12-29T09:17:07;4.72;;;2.10;;
66559;SDS011;53413;49.878;8.142;2022-12-29T09:19:52;6.00;;;2.23;;
66559;SDS011;53413;49.878;8.142;2022-12-29T09:22:17;6.75;;;2.33;;
66559;SDS011;53413;49.878;8.142;2022-12-29T09:24:42;7.80;;;2.60;;
66559;SDS011;53413;49.878;8.142;2022-12-29T09:27:08;7.27;;;2.67;;
66559;SDS011;53413;49.878;8.142;2022-12-29T09:29:33;8.27;;;2.50;;
66559;SDS011;53413;49.878;8.142;2022-12-29T09:31:59;7.13;;;2.57;;
66559;SDS011;53413;49.878;8.142;2022-12-29T09:34:24;8.20;;;3.90;;
66559;SDS011;53413;49.878;8.142;2022-12-29T09:36:49;8.45;;;3.38;;
66559;SDS011;53413;49.878;8.142;2022-12-29T09:39:15;8.38;;;3.50;;
66559;SDS011;53413;49.878;8.142;2022-12-29T09:41:50;7.23;;;3.03;;
66559;SDS011;53413;49.878;8.142;2022-12-29T09:44:30;8.27;;;3.72;;
66559;SDS011;53413;49.878;8.142;2022-12-29T09:47:01;9.77;;;3.53;;
66559;SDS011;53413;49.878;8.142;2022-12-29T09:51:56;8.23;;;3.40;;
66559;SDS011;53413;49.878;8.142;2022-12-29T09:56:53;5.33;;;2.37;;
66559;SDS011;53413;49.878;8.142;2022-12-29T09:59:22;4.97;;;1.48;;
66559;SDS011;53413;49.878;8.142;2022-12-29T10:01:58;5.40;;;1.60;;
66559;SDS011;53413;49.878;8.142;2022-12-29T10:04:48;4.30;;;1.50;;
66559;SDS011;53413;49.878;8.142;2022-12-29T10:07:22;3.87;;;1.53;;
66559;SDS011;53413;49.878;8.142;2022-12-29T10:10:19;5.10;;;1.40;;
66559;SDS011;53413;49.878;8.142;2022-12-29T10:21:16;4.32;;;1.20;;
66559;SDS011;53413;49.878;8.142;2022-12-29T10:23:52;4.60;;;0.75;;
66559;SDS011;53413;49.878;8.142;2022-12-29T10:26:29;4.00;;;1.87;;
66559;SDS011;53413;49.878;8.142;2022-12-29T10:31:39;3.88;;;1.65;;
66559;SDS011;53413;49.878;8.142;2022-12-29T10:34:18;3.35;;;0.93;;
66559;SDS011;53413;49.878;8.142;2022-12-29T10:36:49;4.63;;;1.40;;
66559;SDS011;53413;49.878;8.142;2022-12-29T10:39:29;3.33;;;0.93;;
66559;SDS011;53413;49.878;8.142;2022-12-29T10:44:34;3.60;;;1.10;;
66559;SDS011;53413;49.878;8.142;2022-12-29T10:47:04;4.05;;;1.58;;
66559;SDS011;53413;49.878;8.142;2022-12-29T10:49:37;3.33;;;0.93;;
66559;SDS011;53413;49.878;8.142;2022-12-29T10:52:07;4.70;;;1.80;;
66559;SDS011;53413;49.878;8.142;2022-12-29T10:59:46;4.20;;;0.88;;
66559;SDS011;53413;49.878;8.142;2022-12-29T11:07:20;3.30;;;0.80;;
66559;SDS011;53413;49.878;8.142;2022-12-29T11:09:46;3.50;;;0.90;;
66559;SDS011;53413;49.878;8.142;2022-12-29T11:12:23;3.25;;;0.70;;
66559;SDS011;53413;49.878;8.142;2022-12-29T11:15:35;3.72;;;0.80;;
66559;SDS011;53413;49.878;8.142;2022-12-29T11:17:47;2.90;;;0.60;;
66559;SDS011;53413;49.878;8.142;2022-12-29T11:23:03;3.38;;;0.90;;
66559;SDS011;53413;49.878;8.142;2022-12-29T11:25:29;4.55;;;0.88;;
66559;SDS011;53413;49.878;8.142;2022-12-29T11:30:41;2.47;;;0.67;;
66559;SDS011;53413;49.878;8.142;2022-12-29T11:33:08;4.90;;;0.90;;
66559;SDS011;53413;49.878;8.142;2022-12-29T11:35:41;3.92;;;1.00;;
66559;SDS011;53413;49.878;8.142;2022-12-29T11:38:42;4.00;;;0.95;;
66559;SDS011;53413;49.878;8.142;2022-12-29T11:41:05;3.80;;;0.70;;
66559;SDS011;53413;49.878;8.142;2022-12-29T11:43:37;4.40;;;0.80;;
66559;SDS011;53413;49.878;8.142;2022-12-29T11:46:04;5.18;;;0.80;;
66559;SDS011;53413;49.878;8.142;2022-12-29T11:48:37;3.10;;;0.80;;
66559;SDS011;53413;49.878;8.142;2022-12-29T11:51:04;2.63;;;0.70;;
66559;SDS011;53413;49.878;8.142;2022-12-29T11:56:10;3.73;;;0.80;;
66559;SDS011;53413;49.878;8.142;2022-12-29T11:58:39;3.13;;;0.90;;
66559;SDS011;53413;49.878;8.142;2022-12-29T12:04:02;3.47;;;1.00;;
66559;SDS011;53413;49.878;8.142;2022-12-29T12:06:28;3.83;;;0.87;;
66559;SDS011;53413;49.878;8.142;2022-12-29T12:09:05;4.15;;;1.10;;
66559;SDS011;53413;49.878;8.142;2022-12-29T12:11:39;3.75;;;0.88;;
66559;SDS011;53413;49.878;8.142;2022-12-29T12:16:46;3.17;;;0.90;;
66559;SDS011;53413;49.878;8.142;2022-12-29T12:19:18;3.43;;;0.97;;
66559;SDS011;53413;49.878;8.142;2022-12-29T12:21:58;3.17;;;0.85;;
66559;SDS011;53413;49.878;8.142;2022-12-29T12:24:41;3.75;;;0.90;;
66559;SDS011;53413;49.878;8.142;2022-12-29T12:27:26;3.53;;;0.80;;
66559;SDS011;53413;49.878;8.142;2022-12-29T12:29:58;3.30;;;1.00;;
66559;SDS011;53413;49.878;8.142;2022-12-29T12:34:57;3.72;;;0.90;;
66559;SDS011;53413;49.878;8.142;2022-12-29T12:56:02;4.23;;;1.00;;
66559;SDS011;53413;49.878;8.142;2022-12-29T12:58:35;4.90;;;1.10;;
66559;SDS011;53413;49.878;8.142;2022-12-29T13:04:08;5.85;;;1.08;;
66559;SDS011;53413;49.878;8.142;2022-12-29T13:17:15;4.90;;;1.10;;
66559;SDS011;53413;49.878;8.142;2022-12-29T13:19:59;5.63;;;1.10;;
66559;SDS011;53413;49.878;8.142;2022-12-29T13:28:46;3.10;;;1.00;;
66559;SDS011;53413;49.878;8.142;2022-12-29T13:31:24;5.20;;;1.10;;
66559;SDS011;53413;49.878;8.142;2022-12-29T13:36:33;4.10;;;1.20;;
66559;SDS011;53413;49.878;8.142;2022-12-29T13:42:07;3.33;;;0.98;;
66559;SDS011;53413;49.878;8.142;2022-12-29T13:47:04;4.40;;;1.00;;
66559;SDS011;53413;49.878;8.142;2022-12-29T13:49:42;5.20;;;0.97;;
66559;SDS011;53413;49.878;8.142;2022-12-29T13:52:11;3.95;;;1.00;;
66559;SDS011;53413;49.878;8.142;2022-12-29T13:55:26;6.05;;;1.00;;
66559;SDS011;53413;49.878;8.142;2022-12-29T14:00:21;6.20;;;1.08;;
66559;SDS011;53413;49.878;8.142;2022-12-29T14:05:42;4.35;;;0.80;;
66559;SDS011;53413;49.878;8.142;2022-12-29T14:08:15;5.70;;;1.08;;
66559;SDS011;53413;49.878;8.142;2022-12-29T14:10:50;4.28;;;0.90;;
66559;SDS011;53413;49.878;8.142;2022-12-29T14:13:17;3.22;;;0.80;;
66559;SDS011;53413;49.878;8.142;2022-12-29T14:15:50;4.20;;;0.90;;
66559;SDS011;53413;49.878;8.142;2022-12-29T14:18:23;4.53;;;0.85;;
66559;SDS011;53413;49.878;8.142;2022-12-29T14:28:30;6.63;;;0.90;;
66559;SDS011;53413;49.878;8.142;2022-12-29T14:31:03;6.22;;;0.90;;
66559;SDS011;53413;49.878;8.142;2022-12-29T14:39:00;5.00;;;0.95;;
66559;SDS011;53413;49.878;8.142;2022-12-29T14:41:33;4.28;;;0.82;;
66559;SDS011;53413;49.878;8.142;2022-12-29T14:49:31;3.22;;;0.57;;
66559;SDS011;53413;49.878;8.142;2022-12-29T14:52:06;3.30;;;0.70;;
66559;SDS011;53413;49.878;8.142;2022-12-29T14:57:04;3.53;;;0.67;;
66559;SDS011;53413;49.878;8.142;2022-12-29T14:59:33;4.82;;;0.70;;
66559;SDS011;53413;49.878;8.142;2022-12-29T15:02:00;4.13;;;0.60;;
66559;SDS011;53413;49.878;8.142;2022-12-29T15:04:32;5.50;;;0.80;;
66559;SDS011;53413;49.878;8.142;2022-12-29T15:07:00;4.05;;;0.98;;
66559;SDS011;53413;49.878;8.142;2022-12-29T15:09:35;4.35;;;0.80;;
66559;SDS011;53413;49.878;8.142;2022-12-29T15:14:56;4.67;;;0.77;;
66559;SDS011;53413;49.878;8.142;2022-12-29T15:19:54;4.28;;;0.70;;
66559;SDS011;53413;49.878;8.142;2022-12-29T15:22:21;5.05;;;0.85;;
66559;SDS011;53413;49.878;8.142;2022-12-29T15:24:47;3.80;;;0.80;;
66559;SDS011;53413;49.878;8.142;2022-12-29T15:27:19;4.43;;;0.90;;
66559;SDS011;53413;49.878;8.142;2022-12-29T15:29:46;3.75;;;0.95;;
66559;SDS011;53413;49.878;8.142;2022-12-29T15:34:40;5.13;;;0.80;;
66559;SDS011;53413;49.878;8.142;2022-12-29T15:37:06;4.35;;;0.73;;
66559;SDS011;53413;49.878;8.142;2022-12-29T15:39:32;4.32;;;0.80;;
66559;SDS011;53413;49.878;8.142;2022-12-29T15:45:15;3.45;;;0.70;;
66559;SDS011;53413;49.878;8.142;2022-12-29T15:47:41;5.57;;;0.87;;
66559;SDS011;53413;49.878;8.142;2022-12-29T15:50:12;4.20;;;1.00;;
66559;SDS011;53413;49.878;8.142;2022-12-29T15:52:45;3.45;;;0.80;;
66559;SDS011;53413;49.878;8.142;2022-12-29T15:58:23;5.43;;;0.82;;
66559;SDS011;53413;49.878;8.142;2022-12-29T16:00:55;4.45;;;0.73;;
66559;SDS011;53413;49.878;8.142;2022-12-29T16:03:27;3.40;;;0.75;;
66559;SDS011;53413;49.878;8.142;2022-12-29T16:11:37;3.97;;;0.80;;
66559;SDS011;53413;49.878;8.142;2022-12-29T16:14:21;3.92;;;0.70;;
66559;SDS011;53413;49.878;8.142;2022-12-29T16:16:55;4.15;;;0.80;;
66559;SDS011;53413;49.878;8.142;2022-12-29T16:19:26;3.30;;;0.70;;
66559;SDS011;53413;49.878;8.142;2022-12-29T16:21:54;2.80;;;0.70;;
66559;SDS011;53413;49.878;8.142;2022-12-29T16:24:20;4.57;;;0.82;;
66559;SDS011;53413;49.878;8.142;2022-12-29T16:27:02;7.60;;;0.77;;
66559;SDS011;53413;49.878;8.142;2022-12-29T16:29:33;4.18;;;0.85;;
66559;SDS011;53413;49.878;8.142;2022-12-29T16:32:00;4.90;;;0.85;;
66559;SDS011;53413;49.878;8.142;2022-12-29T16:34:32;4.47;;;0.80;;
66559;SDS011;53413;49.878;8.142;2022-12-29T16:39:56;6.18;;;0.93;;
66559;SDS011;53413;49.878;8.142;2022-12-29T16:50:29;5.37;;;0.77;;
66559;SDS011;53413;49.878;8.142;2022-12-29T16:52:55;5.13;;;0.88;;
66559;SDS011;53413;49.878;8.142;2022-12-29T16:55:20;6.03;;;0.80;;
66559;SDS011;53413;49.878;8.142;2022-12-29T16:57:46;6.90;;;0.70;;
66559;SDS011;53413;49.878;8.142;2022-12-29T17:00:18;9.52;;;0.90;;
66559;SDS011;53413;49.878;8.142;2022-12-29T17:02:56;3.55;;;0.70;;
66559;SDS011;53413;49.878;8.142;2022-12-29T17:05:24;5.33;;;0.93;;
66559;SDS011;53413;49.878;8.142;2022-12-29T17:07:49;4.18;;;0.73;;
66559;SDS011;53413;49.878;8.142;2022-12-29T17:10:16;6.53;;;1.08;;
66559;SDS011;53413;49.878;8.142;2022-12-29T17:12:45;6.63;;;0.90;;
66559;SDS011;53413;49.878;8.142;2022-12-29T17:15:24;4.72;;;0.88;;
66559;SDS011;53413;49.878;8.142;2022-12-29T17:17:51;6.10;;;1.00;;
66559;SDS011;53413;49.878;8.142;2022-12-29T17:22:50;4.85;;;0.80;;
66559;SDS011;53413;49.878;8.142;2022-12-29T17:25:19;5.85;;;1.02;;
66559;SDS011;53413;49.878;8.142;2022-12-29T17:27:58;6.90;;;1.10;;
66559;SDS011;53413;49.878;8.142;2022-12-29T17:30:25;4.93;;;1.53;;
66559;SDS011;53413;49.878;8.142;2022-12-29T17:33:00;6.25;;;1.20;;
66559;SDS011;53413;49.878;8.142;2022-12-29T17:35:28;4.95;;;1.17;;
66559;SDS011;53413;49.878;8.142;2022-12-29T17:37:54;6.87;;;1.30;;
66559;SDS011;53413;49.878;8.142;2022-12-29T17:40:20;5.93;;;1.20;;
66559;SDS011;53413;49.878;8.142;2022-12-29T17:42:49;7.70;;;1.10;;
66559;SDS011;53413;49.878;8.142;2022-12-29T17:45:22;29.85;;;5.28;;
66559;SDS011;53413;49.878;8.142;2022-12-29T17:47:49;8.32;;;1.50;;
66559;SDS011;53413;49.878;8.142;2022-12-29T17:50:18;9.17;;;1.97;;
66559;SDS011;53413;49.878;8.142;2022-12-29T17:52:49;6.28;;;1.52;;
66559;SDS011;53413;49.878;8.142;2022-12-29T17:55:18;8.85;;;2.55;;
66559;SDS011;53413;49.878;8.142;2022-12-29T17:57:45;8.00;;;1.83;;
66559;SDS011;53413;49.878;8.142;2022-12-29T18:00:18;7.70;;;3.17;;
66559;SDS011;53413;49.878;8.142;2022-12-29T18:02:47;6.30;;;1.70;;
66559;SDS011;53413;49.878;8.142;2022-12-29T18:07:52;7.53;;;2.00;;
66559;SDS011;53413;49.878;8.142;2022-12-29T18:10:19;6.90;;;1.65;;
66559;SDS011;53413;49.878;8.142;2022-12-29T18:12:47;5.45;;;1.30;;